sensor_id;sensor_type;location;lat;lon;timestamp;P1;durP1;ratioP1;P2;durP2;ratioP2
17955;SDS011;27666;51.498;11.966;2022-12-05T00:00:14;198.70;;;47.03;;
17955;SDS011;27666;51.498;11.966;2022-12-05T00:03:02;204.47;;;45.40;;
17955;SDS011;27666;51.498;11.966;2022-12-05T00:05:49;166.50;;;42.87;;
17955;SDS011;27666;51.498;11.966;2022-12-05T00:08:37;170.80;;;43.03;;
17955;SDS011;27666;51.498;11.966;2022-12-05T00:11:24;225.90;;;49.60;;
17955;SDS011;27666;51.498;11.966;2022-12-05T00:14:12;219.90;;;47.07;;
17955;SDS011;27666;51.498;11.966;2022-12-05T00:16:59;190.90;;;47.83;;
17955;SDS011;27666;51.498;11.966;2022-12-05T00:19:45;183.07;;;45.73;;
17955;SDS011;27666;51.498;11.966;2022-12-05T00:22:40;196.60;;;44.10;;
17955;SDS011;27666;51.498;11.966;2022-12-05T00:25:28;151.30;;;45.73;;
17955;SDS011;27666;51.498;11.966;2022-12-05T00:28:15;176.40;;;44.10;;
17955;SDS011;27666;51.498;11.966;2022-12-05T00:31:01;133.80;;;41.43;;
17955;SDS011;27666;51.498;11.966;2022-12-05T00:33:49;127.80;;;40.00;;
17955;SDS011;27666;51.498;11.966;2022-12-05T00:36:36;160.60;;;41.27;;
17955;SDS011;27666;51.498;11.966;2022-12-05T00:39:22;118.27;;;38.47;;
17955;SDS011;27666;51.498;11.966;2022-12-05T00:42:10;107.30;;;36.80;;
17955;SDS011;27666;51.498;11.966;2022-12-05T00:44:57;102.83;;;35.73;;
17955;SDS011;27666;51.498;11.966;2022-12-05T00:47:43;106.10;;;37.40;;
17955;SDS011;27666;51.498;11.966;2022-12-05T00:50:29;115.53;;;37.10;;
17955;SDS011;27666;51.498;11.966;2022-12-05T00:53:16;115.97;;;36.60;;
17955;SDS011;27666;51.498;11.966;2022-12-05T00:56:03;97.93;;;37.23;;
17955;SDS011;27666;51.498;11.966;2022-12-05T00:58:52;121.07;;;36.23;;
17955;SDS011;27666;51.498;11.966;2022-12-05T01:01:40;114.23;;;37.63;;
17955;SDS011;27666;51.498;11.966;2022-12-05T01:04:27;105.17;;;36.20;;
17955;SDS011;27666;51.498;11.966;2022-12-05T01:07:13;108.93;;;35.03;;
17955;SDS011;27666;51.498;11.966;2022-12-05T01:10:00;122.97;;;38.70;;
17955;SDS011;27666;51.498;11.966;2022-12-05T01:12:46;108.17;;;37.30;;
17955;SDS011;27666;51.498;11.966;2022-12-05T01:15:36;121.00;;;36.83;;
17955;SDS011;27666;51.498;11.966;2022-12-05T01:18:23;113.97;;;36.07;;
17955;SDS011;27666;51.498;11.966;2022-12-05T01:21:09;92.97;;;34.23;;
17955;SDS011;27666;51.498;11.966;2022-12-05T01:23:56;103.20;;;36.50;;
17955;SDS011;27666;51.498;11.966;2022-12-05T01:26:42;139.50;;;39.33;;
17955;SDS011;27666;51.498;11.966;2022-12-05T01:29:30;142.00;;;38.37;;
17955;SDS011;27666;51.498;11.966;2022-12-05T01:32:18;172.57;;;38.63;;
17955;SDS011;27666;51.498;11.966;2022-12-05T01:35:04;112.90;;;36.30;;
17955;SDS011;27666;51.498;11.966;2022-12-05T01:37:51;137.60;;;39.40;;
17955;SDS011;27666;51.498;11.966;2022-12-05T01:40:38;121.67;;;36.77;;
17955;SDS011;27666;51.498;11.966;2022-12-05T01:43:25;146.33;;;36.87;;
17955;SDS011;27666;51.498;11.966;2022-12-05T01:46:11;129.63;;;39.60;;
17955;SDS011;27666;51.498;11.966;2022-12-05T01:49:01;111.73;;;38.97;;
17955;SDS011;27666;51.498;11.966;2022-12-05T01:51:52;124.30;;;38.33;;
17955;SDS011;27666;51.498;11.966;2022-12-05T01:54:40;114.30;;;36.70;;
17955;SDS011;27666;51.498;11.966;2022-12-05T01:57:29;107.77;;;39.03;;
17955;SDS011;27666;51.498;11.966;2022-12-05T02:00:16;134.00;;;38.27;;
17955;SDS011;27666;51.498;11.966;2022-12-05T02:03:05;120.27;;;39.50;;
17955;SDS011;27666;51.498;11.966;2022-12-05T02:05:57;143.33;;;39.93;;
17955;SDS011;27666;51.498;11.966;2022-12-05T02:08:44;109.37;;;37.37;;
17955;SDS011;27666;51.498;11.966;2022-12-05T02:11:32;115.50;;;37.17;;
17955;SDS011;27666;51.498;11.966;2022-12-05T02:14:22;123.47;;;38.73;;
17955;SDS011;27666;51.498;11.966;2022-12-05T02:17:16;112.90;;;37.73;;
17955;SDS011;27666;51.498;11.966;2022-12-05T02:20:12;114.77;;;37.37;;
17955;SDS011;27666;51.498;11.966;2022-12-05T02:23:19;109.30;;;37.07;;
17955;SDS011;27666;51.498;11.966;2022-12-05T02:26:24;102.97;;;36.60;;
17955;SDS011;27666;51.498;11.966;2022-12-05T02:29:29;154.30;;;35.67;;
17955;SDS011;27666;51.498;11.966;2022-12-05T02:32:41;93.47;;;34.23;;
17955;SDS011;27666;51.498;11.966;2022-12-05T02:35:36;97.33;;;35.13;;
17955;SDS011;27666;51.498;11.966;2022-12-05T02:38:30;121.90;;;35.63;;
17955;SDS011;27666;51.498;11.966;2022-12-05T02:41:24;94.57;;;36.93;;
17955;SDS011;27666;51.498;11.966;2022-12-05T02:44:16;111.10;;;34.97;;
17955;SDS011;27666;51.498;11.966;2022-12-05T02:47:06;98.40;;;35.43;;
17955;SDS011;27666;51.498;11.966;2022-12-05T02:49:55;137.73;;;35.73;;
17955;SDS011;27666;51.498;11.966;2022-12-05T02:52:43;90.03;;;34.20;;
17955;SDS011;27666;51.498;11.966;2022-12-05T02:55:32;92.70;;;33.73;;
17955;SDS011;27666;51.498;11.966;2022-12-05T02:58:20;85.83;;;32.87;;
17955;SDS011;27666;51.498;11.966;2022-12-05T03:01:11;87.47;;;34.17;;
17955;SDS011;27666;51.498;11.966;2022-12-05T03:03:59;96.33;;;34.07;;
17955;SDS011;27666;51.498;11.966;2022-12-05T03:06:50;90.10;;;33.30;;
17955;SDS011;27666;51.498;11.966;2022-12-05T03:09:42;87.93;;;32.50;;
17955;SDS011;27666;51.498;11.966;2022-12-05T03:12:35;79.97;;;31.30;;
17955;SDS011;27666;51.498;11.966;2022-12-05T03:15:27;78.17;;;31.63;;
17955;SDS011;27666;51.498;11.966;2022-12-05T03:18:18;86.30;;;31.87;;
17955;SDS011;27666;51.498;11.966;2022-12-05T03:21:12;77.87;;;32.23;;
17955;SDS011;27666;51.498;11.966;2022-12-05T03:24:07;74.27;;;30.90;;
17955;SDS011;27666;51.498;11.966;2022-12-05T03:26:57;82.67;;;30.70;;
17955;SDS011;27666;51.498;11.966;2022-12-05T03:29:53;77.73;;;28.97;;
17955;SDS011;27666;51.498;11.966;2022-12-05T03:32:44;78.43;;;30.10;;
17955;SDS011;27666;51.498;11.966;2022-12-05T03:35:38;72.70;;;28.90;;
17955;SDS011;27666;51.498;11.966;2022-12-05T03:38:30;82.90;;;28.80;;
17955;SDS011;27666;51.498;11.966;2022-12-05T03:41:21;66.03;;;29.10;;
17955;SDS011;27666;51.498;11.966;2022-12-05T03:44:11;80.27;;;30.60;;
17955;SDS011;27666;51.498;11.966;2022-12-05T03:47:02;75.33;;;30.07;;
17955;SDS011;27666;51.498;11.966;2022-12-05T03:49:54;70.00;;;26.13;;
17955;SDS011;27666;51.498;11.966;2022-12-05T03:52:45;72.47;;;29.27;;
17955;SDS011;27666;51.498;11.966;2022-12-05T03:55:56;56.23;;;25.27;;
17955;SDS011;27666;51.498;11.966;2022-12-05T03:58:50;60.07;;;24.90;;
17955;SDS011;27666;51.498;11.966;2022-12-05T04:01:41;60.30;;;24.90;;
17955;SDS011;27666;51.498;11.966;2022-12-05T04:04:30;56.43;;;23.67;;
17955;SDS011;27666;51.498;11.966;2022-12-05T04:07:21;61.10;;;24.47;;
17955;SDS011;27666;51.498;11.966;2022-12-05T04:10:10;54.67;;;24.40;;
17955;SDS011;27666;51.498;11.966;2022-12-05T04:13:01;60.97;;;24.33;;
17955;SDS011;27666;51.498;11.966;2022-12-05T04:16:04;47.40;;;22.10;;
17955;SDS011;27666;51.498;11.966;2022-12-05T04:19:14;44.07;;;21.10;;
17955;SDS011;27666;51.498;11.966;2022-12-05T04:22:07;44.17;;;22.17;;
17955;SDS011;27666;51.498;11.966;2022-12-05T04:24:53;51.77;;;20.73;;
17955;SDS011;27666;51.498;11.966;2022-12-05T04:28:05;45.53;;;21.20;;
17955;SDS011;27666;51.498;11.966;2022-12-05T04:31:07;39.97;;;20.37;;
17955;SDS011;27666;51.498;11.966;2022-12-05T04:33:58;39.53;;;18.47;;
17955;SDS011;27666;51.498;11.966;2022-12-05T04:36:49;35.50;;;18.07;;
17955;SDS011;27666;51.498;11.966;2022-12-05T04:39:43;37.83;;;18.77;;
17955;SDS011;27666;51.498;11.966;2022-12-05T04:42:33;37.33;;;18.13;;
17955;SDS011;27666;51.498;11.966;2022-12-05T04:45:22;36.03;;;17.73;;
17955;SDS011;27666;51.498;11.966;2022-12-05T04:48:12;32.60;;;16.07;;
17955;SDS011;27666;51.498;11.966;2022-12-05T04:51:01;32.33;;;15.77;;
17955;SDS011;27666;51.498;11.966;2022-12-05T04:53:53;34.07;;;16.80;;
17955;SDS011;27666;51.498;11.966;2022-12-05T04:56:42;30.70;;;15.93;;
17955;SDS011;27666;51.498;11.966;2022-12-05T04:59:30;31.47;;;16.67;;
17955;SDS011;27666;51.498;11.966;2022-12-05T05:02:17;32.53;;;16.93;;
17955;SDS011;27666;51.498;11.966;2022-12-05T05:05:10;31.97;;;15.33;;
17955;SDS011;27666;51.498;11.966;2022-12-05T05:08:00;31.90;;;15.70;;
17955;SDS011;27666;51.498;11.966;2022-12-05T05:10:49;25.37;;;14.60;;
17955;SDS011;27666;51.498;11.966;2022-12-05T05:13:42;27.07;;;14.57;;
17955;SDS011;27666;51.498;11.966;2022-12-05T05:16:29;27.83;;;14.93;;
17955;SDS011;27666;51.498;11.966;2022-12-05T05:19:17;32.17;;;15.03;;
17955;SDS011;27666;51.498;11.966;2022-12-05T05:22:05;26.33;;;14.47;;
17955;SDS011;27666;51.498;11.966;2022-12-05T05:24:51;26.40;;;14.77;;
17955;SDS011;27666;51.498;11.966;2022-12-05T05:27:37;26.53;;;13.60;;
17955;SDS011;27666;51.498;11.966;2022-12-05T05:30:24;26.27;;;13.63;;
17955;SDS011;27666;51.498;11.966;2022-12-05T05:33:10;31.77;;;15.83;;
17955;SDS011;27666;51.498;11.966;2022-12-05T05:35:56;29.07;;;16.23;;
17955;SDS011;27666;51.498;11.966;2022-12-05T05:38:49;26.57;;;14.03;;
17955;SDS011;27666;51.498;11.966;2022-12-05T05:41:36;21.50;;;13.43;;
17955;SDS011;27666;51.498;11.966;2022-12-05T05:44:23;27.00;;;13.50;;
17955;SDS011;27666;51.498;11.966;2022-12-05T05:47:09;20.87;;;12.77;;
17955;SDS011;27666;51.498;11.966;2022-12-05T05:49:56;24.27;;;13.23;;
17955;SDS011;27666;51.498;11.966;2022-12-05T05:52:44;28.63;;;14.07;;
17955;SDS011;27666;51.498;11.966;2022-12-05T05:55:32;20.30;;;12.27;;
17955;SDS011;27666;51.498;11.966;2022-12-05T05:58:18;27.40;;;13.00;;
17955;SDS011;27666;51.498;11.966;2022-12-05T06:01:05;23.33;;;12.23;;
17955;SDS011;27666;51.498;11.966;2022-12-05T06:03:53;24.10;;;12.37;;
17955;SDS011;27666;51.498;11.966;2022-12-05T06:06:40;22.47;;;12.93;;
17955;SDS011;27666;51.498;11.966;2022-12-05T06:09:26;21.47;;;12.27;;
17955;SDS011;27666;51.498;11.966;2022-12-05T06:12:14;24.67;;;12.70;;
17955;SDS011;27666;51.498;11.966;2022-12-05T06:15:00;21.50;;;12.20;;
17955;SDS011;27666;51.498;11.966;2022-12-05T06:17:47;23.93;;;12.03;;
17955;SDS011;27666;51.498;11.966;2022-12-05T06:20:33;20.10;;;12.53;;
17955;SDS011;27666;51.498;11.966;2022-12-05T06:23:20;22.33;;;12.73;;
17955;SDS011;27666;51.498;11.966;2022-12-05T06:26:09;18.90;;;11.97;;
17955;SDS011;27666;51.498;11.966;2022-12-05T06:28:58;22.47;;;12.10;;
17955;SDS011;27666;51.498;11.966;2022-12-05T06:31:44;21.23;;;11.73;;
17955;SDS011;27666;51.498;11.966;2022-12-05T06:34:31;22.03;;;12.13;;
17955;SDS011;27666;51.498;11.966;2022-12-05T06:37:18;20.67;;;11.70;;
17955;SDS011;27666;51.498;11.966;2022-12-05T06:40:05;20.93;;;11.63;;
17955;SDS011;27666;51.498;11.966;2022-12-05T06:42:53;23.57;;;12.30;;
17955;SDS011;27666;51.498;11.966;2022-12-05T06:45:41;23.70;;;11.73;;
17955;SDS011;27666;51.498;11.966;2022-12-05T06:48:27;20.50;;;11.50;;
17955;SDS011;27666;51.498;11.966;2022-12-05T06:51:14;21.93;;;11.60;;
17955;SDS011;27666;51.498;11.966;2022-12-05T06:54:01;21.03;;;11.27;;
17955;SDS011;27666;51.498;11.966;2022-12-05T06:56:48;19.90;;;11.63;;
17955;SDS011;27666;51.498;11.966;2022-12-05T06:59:34;21.00;;;10.93;;
17955;SDS011;27666;51.498;11.966;2022-12-05T07:02:22;22.60;;;12.13;;
17955;SDS011;27666;51.498;11.966;2022-12-05T07:05:08;18.83;;;11.50;;
17955;SDS011;27666;51.498;11.966;2022-12-05T07:07:55;18.83;;;11.27;;
17955;SDS011;27666;51.498;11.966;2022-12-05T07:10:41;23.40;;;11.97;;
17955;SDS011;27666;51.498;11.966;2022-12-05T07:13:34;19.87;;;11.63;;
17955;SDS011;27666;51.498;11.966;2022-12-05T07:16:21;23.67;;;11.27;;
17955;SDS011;27666;51.498;11.966;2022-12-05T07:19:11;20.97;;;11.57;;
17955;SDS011;27666;51.498;11.966;2022-12-05T07:21:57;23.83;;;11.80;;
17955;SDS011;27666;51.498;11.966;2022-12-05T07:24:44;21.80;;;12.47;;
17955;SDS011;27666;51.498;11.966;2022-12-05T07:27:30;21.57;;;12.33;;
17955;SDS011;27666;51.498;11.966;2022-12-05T07:30:17;25.23;;;13.13;;
17955;SDS011;27666;51.498;11.966;2022-12-05T07:33:04;29.70;;;14.13;;
17955;SDS011;27666;51.498;11.966;2022-12-05T07:35:52;31.30;;;14.07;;
17955;SDS011;27666;51.498;11.966;2022-12-05T07:38:38;31.73;;;14.03;;
17955;SDS011;27666;51.498;11.966;2022-12-05T07:41:26;25.87;;;13.80;;
17955;SDS011;27666;51.498;11.966;2022-12-05T07:44:13;26.07;;;14.27;;
17955;SDS011;27666;51.498;11.966;2022-12-05T07:47:00;28.23;;;13.40;;
17955;SDS011;27666;51.498;11.966;2022-12-05T07:49:46;22.00;;;12.33;;
17955;SDS011;27666;51.498;11.966;2022-12-05T07:52:34;23.27;;;13.33;;
17955;SDS011;27666;51.498;11.966;2022-12-05T07:55:21;23.30;;;13.37;;
17955;SDS011;27666;51.498;11.966;2022-12-05T07:58:07;23.83;;;12.47;;
17955;SDS011;27666;51.498;11.966;2022-12-05T08:00:53;28.67;;;13.53;;
17955;SDS011;27666;51.498;11.966;2022-12-05T08:03:40;22.80;;;12.50;;
17955;SDS011;27666;51.498;11.966;2022-12-05T08:06:28;22.20;;;12.50;;
17955;SDS011;27666;51.498;11.966;2022-12-05T08:09:17;22.97;;;12.70;;
17955;SDS011;27666;51.498;11.966;2022-12-05T08:12:04;22.27;;;12.70;;
17955;SDS011;27666;51.498;11.966;2022-12-05T08:14:50;25.97;;;12.87;;
17955;SDS011;27666;51.498;11.966;2022-12-05T08:17:37;22.60;;;12.07;;
17955;SDS011;27666;51.498;11.966;2022-12-05T08:20:23;22.70;;;13.77;;
17955;SDS011;27666;51.498;11.966;2022-12-05T08:23:10;28.53;;;12.67;;
17955;SDS011;27666;51.498;11.966;2022-12-05T08:26:00;27.80;;;16.63;;
17955;SDS011;27666;51.498;11.966;2022-12-05T08:28:49;23.33;;;11.83;;
17955;SDS011;27666;51.498;11.966;2022-12-05T08:31:38;23.57;;;12.30;;
17955;SDS011;27666;51.498;11.966;2022-12-05T08:34:26;28.40;;;16.43;;
17955;SDS011;27666;51.498;11.966;2022-12-05T08:37:12;31.23;;;15.73;;
17955;SDS011;27666;51.498;11.966;2022-12-05T08:39:59;25.10;;;13.90;;
17955;SDS011;27666;51.498;11.966;2022-12-05T08:42:47;29.23;;;15.53;;
17955;SDS011;27666;51.498;11.966;2022-12-05T08:45:33;23.87;;;13.00;;
17955;SDS011;27666;51.498;11.966;2022-12-05T08:48:21;52.57;;;24.87;;
17955;SDS011;27666;51.498;11.966;2022-12-05T08:51:13;32.33;;;16.13;;
17955;SDS011;27666;51.498;11.966;2022-12-05T08:54:00;24.27;;;13.43;;
17955;SDS011;27666;51.498;11.966;2022-12-05T08:56:49;21.00;;;12.17;;
17955;SDS011;27666;51.498;11.966;2022-12-05T08:59:37;28.17;;;12.80;;
17955;SDS011;27666;51.498;11.966;2022-12-05T09:02:23;26.97;;;12.53;;
17955;SDS011;27666;51.498;11.966;2022-12-05T09:05:09;21.17;;;11.83;;
17955;SDS011;27666;51.498;11.966;2022-12-05T09:08:12;24.80;;;12.30;;
17955;SDS011;27666;51.498;11.966;2022-12-05T09:10:59;21.60;;;11.63;;
17955;SDS011;27666;51.498;11.966;2022-12-05T09:13:49;45.90;;;22.80;;
17955;SDS011;27666;51.498;11.966;2022-12-05T09:16:39;26.53;;;11.87;;
17955;SDS011;27666;51.498;11.966;2022-12-05T09:19:25;21.73;;;11.27;;
17955;SDS011;27666;51.498;11.966;2022-12-05T09:22:15;19.73;;;11.07;;
17955;SDS011;27666;51.498;11.966;2022-12-05T09:25:01;20.23;;;10.40;;
17955;SDS011;27666;51.498;11.966;2022-12-05T09:27:48;20.97;;;10.90;;
17955;SDS011;27666;51.498;11.966;2022-12-05T09:30:35;22.63;;;10.40;;
17955;SDS011;27666;51.498;11.966;2022-12-05T09:33:22;24.53;;;12.00;;
17955;SDS011;27666;51.498;11.966;2022-12-05T09:36:10;26.80;;;12.27;;
17955;SDS011;27666;51.498;11.966;2022-12-05T09:38:59;20.13;;;11.40;;
17955;SDS011;27666;51.498;11.966;2022-12-05T09:45:00;79.23;;;36.20;;
17955;SDS011;27666;51.498;11.966;2022-12-05T09:47:52;24.40;;;12.27;;
17955;SDS011;27666;51.498;11.966;2022-12-05T09:50:44;23.93;;;11.67;;
17955;SDS011;27666;51.498;11.966;2022-12-05T09:53:35;22.27;;;11.07;;
17955;SDS011;27666;51.498;11.966;2022-12-05T09:56:24;25.37;;;12.33;;
17955;SDS011;27666;51.498;11.966;2022-12-05T09:59:14;25.33;;;11.57;;
17955;SDS011;27666;51.498;11.966;2022-12-05T10:02:03;24.03;;;11.37;;
17955;SDS011;27666;51.498;11.966;2022-12-05T10:05:01;27.07;;;11.97;;
17955;SDS011;27666;51.498;11.966;2022-12-05T10:07:59;20.73;;;11.73;;
17955;SDS011;27666;51.498;11.966;2022-12-05T10:10:55;24.37;;;11.83;;
17955;SDS011;27666;51.498;11.966;2022-12-05T10:13:47;19.20;;;11.50;;
17955;SDS011;27666;51.498;11.966;2022-12-05T10:16:40;27.60;;;12.73;;
17955;SDS011;27666;51.498;11.966;2022-12-05T10:19:32;25.13;;;13.73;;
17955;SDS011;27666;51.498;11.966;2022-12-05T10:22:24;30.90;;;16.27;;
17955;SDS011;27666;51.498;11.966;2022-12-05T10:25:17;33.17;;;16.50;;
17955;SDS011;27666;51.498;11.966;2022-12-05T10:28:09;25.97;;;12.90;;
17955;SDS011;27666;51.498;11.966;2022-12-05T10:31:01;25.60;;;12.43;;
17955;SDS011;27666;51.498;11.966;2022-12-05T10:33:52;25.77;;;12.07;;
17955;SDS011;27666;51.498;11.966;2022-12-05T10:36:50;26.73;;;12.83;;
17955;SDS011;27666;51.498;11.966;2022-12-05T10:39:41;29.07;;;13.50;;
17955;SDS011;27666;51.498;11.966;2022-12-05T10:42:30;24.80;;;12.73;;
17955;SDS011;27666;51.498;11.966;2022-12-05T10:45:21;59.60;;;27.87;;
17955;SDS011;27666;51.498;11.966;2022-12-05T10:48:08;35.63;;;17.77;;
17955;SDS011;27666;51.498;11.966;2022-12-05T10:50:57;29.00;;;12.73;;
17955;SDS011;27666;51.498;11.966;2022-12-05T10:53:45;24.67;;;11.80;;
17955;SDS011;27666;51.498;11.966;2022-12-05T10:56:35;22.63;;;11.77;;
17955;SDS011;27666;51.498;11.966;2022-12-05T11:02:30;28.70;;;12.10;;
17955;SDS011;27666;51.498;11.966;2022-12-05T11:05:26;82.27;;;35.97;;
17955;SDS011;27666;51.498;11.966;2022-12-05T11:08:18;25.17;;;11.33;;
17955;SDS011;27666;51.498;11.966;2022-12-05T11:11:28;24.50;;;12.13;;
17955;SDS011;27666;51.498;11.966;2022-12-05T11:14:20;25.33;;;11.30;;
17955;SDS011;27666;51.498;11.966;2022-12-05T11:17:09;23.07;;;12.63;;
17955;SDS011;27666;51.498;11.966;2022-12-05T11:23:21;22.27;;;11.00;;
17955;SDS011;27666;51.498;11.966;2022-12-05T11:26:15;53.50;;;24.33;;
17955;SDS011;27666;51.498;11.966;2022-12-05T11:29:10;45.23;;;21.37;;
17955;SDS011;27666;51.498;11.966;2022-12-05T11:32:17;21.97;;;11.20;;
17955;SDS011;27666;51.498;11.966;2022-12-05T11:35:07;30.23;;;12.30;;
17955;SDS011;27666;51.498;11.966;2022-12-05T11:38:01;26.27;;;11.80;;
17955;SDS011;27666;51.498;11.966;2022-12-05T11:40:50;19.77;;;11.70;;
17955;SDS011;27666;51.498;11.966;2022-12-05T11:43:53;22.63;;;11.07;;
17955;SDS011;27666;51.498;11.966;2022-12-05T11:46:53;23.73;;;11.07;;
17955;SDS011;27666;51.498;11.966;2022-12-05T11:49:55;30.83;;;16.33;;
17955;SDS011;27666;51.498;11.966;2022-12-05T11:52:53;49.20;;;22.93;;
17955;SDS011;27666;51.498;11.966;2022-12-05T11:55:48;22.63;;;11.47;;
17955;SDS011;27666;51.498;11.966;2022-12-05T11:58:42;17.97;;;10.27;;
17955;SDS011;27666;51.498;11.966;2022-12-05T12:01:41;17.30;;;9.60;;
17955;SDS011;27666;51.498;11.966;2022-12-05T12:04:52;19.17;;;9.53;;
17955;SDS011;27666;51.498;11.966;2022-12-05T12:07:49;18.50;;;9.50;;
17955;SDS011;27666;51.498;11.966;2022-12-05T12:10:48;18.70;;;10.33;;
17955;SDS011;27666;51.498;11.966;2022-12-05T12:13:45;21.33;;;11.77;;
17955;SDS011;27666;51.498;11.966;2022-12-05T12:16:41;65.73;;;29.83;;
17955;SDS011;27666;51.498;11.966;2022-12-05T12:19:42;21.87;;;12.70;;
17955;SDS011;27666;51.498;11.966;2022-12-05T12:23:00;40.13;;;18.23;;
17955;SDS011;27666;51.498;11.966;2022-12-05T12:26:03;23.50;;;11.67;;
17955;SDS011;27666;51.498;11.966;2022-12-05T12:28:56;20.67;;;10.93;;
17955;SDS011;27666;51.498;11.966;2022-12-05T12:31:56;21.80;;;12.90;;
17955;SDS011;27666;51.498;11.966;2022-12-05T12:35:00;20.37;;;10.33;;
17955;SDS011;27666;51.498;11.966;2022-12-05T12:38:16;23.70;;;11.37;;
17955;SDS011;27666;51.498;11.966;2022-12-05T12:41:15;18.87;;;10.77;;
17955;SDS011;27666;51.498;11.966;2022-12-05T12:44:21;19.73;;;10.70;;
17955;SDS011;27666;51.498;11.966;2022-12-05T12:47:30;19.40;;;11.80;;
17955;SDS011;27666;51.498;11.966;2022-12-05T12:50:31;40.53;;;18.37;;
17955;SDS011;27666;51.498;11.966;2022-12-05T12:53:34;29.00;;;13.40;;
17955;SDS011;27666;51.498;11.966;2022-12-05T12:56:31;23.13;;;10.50;;
17955;SDS011;27666;51.498;11.966;2022-12-05T12:59:32;16.93;;;10.80;;
17955;SDS011;27666;51.498;11.966;2022-12-05T13:02:32;19.70;;;10.70;;
17955;SDS011;27666;51.498;11.966;2022-12-05T13:05:26;23.23;;;12.43;;
17955;SDS011;27666;51.498;11.966;2022-12-05T13:08:20;19.77;;;11.07;;
17955;SDS011;27666;51.498;11.966;2022-12-05T13:11:12;19.80;;;11.47;;
17955;SDS011;27666;51.498;11.966;2022-12-05T13:14:00;16.93;;;11.07;;
17955;SDS011;27666;51.498;11.966;2022-12-05T13:16:48;20.63;;;11.47;;
17955;SDS011;27666;51.498;11.966;2022-12-05T13:19:39;20.70;;;10.97;;
17955;SDS011;27666;51.498;11.966;2022-12-05T13:22:29;17.50;;;10.87;;
17955;SDS011;27666;51.498;11.966;2022-12-05T13:25:17;18.80;;;10.93;;
17955;SDS011;27666;51.498;11.966;2022-12-05T13:28:08;19.77;;;11.43;;
17955;SDS011;27666;51.498;11.966;2022-12-05T13:31:09;33.10;;;17.60;;
17955;SDS011;27666;51.498;11.966;2022-12-05T13:34:00;32.87;;;18.20;;
17955;SDS011;27666;51.498;11.966;2022-12-05T13:36:47;18.23;;;11.13;;
17955;SDS011;27666;51.498;11.966;2022-12-05T13:39:52;19.17;;;12.00;;
17955;SDS011;27666;51.498;11.966;2022-12-05T13:42:59;17.50;;;10.93;;
17955;SDS011;27666;51.498;11.966;2022-12-05T13:45:53;19.17;;;11.67;;
17955;SDS011;27666;51.498;11.966;2022-12-05T13:48:46;21.40;;;11.67;;
17955;SDS011;27666;51.498;11.966;2022-12-05T13:51:34;19.23;;;11.57;;
17955;SDS011;27666;51.498;11.966;2022-12-05T13:54:25;18.40;;;12.03;;
17955;SDS011;27666;51.498;11.966;2022-12-05T14:00:37;21.83;;;12.57;;
17955;SDS011;27666;51.498;11.966;2022-12-05T14:06:54;29.57;;;15.33;;
17955;SDS011;27666;51.498;11.966;2022-12-05T14:09:48;24.43;;;14.57;;
17955;SDS011;27666;51.498;11.966;2022-12-05T14:12:47;25.37;;;12.70;;
17955;SDS011;27666;51.498;11.966;2022-12-05T14:15:37;20.57;;;13.03;;
17955;SDS011;27666;51.498;11.966;2022-12-05T14:18:28;20.40;;;12.57;;
17955;SDS011;27666;51.498;11.966;2022-12-05T14:21:34;23.07;;;14.00;;
17955;SDS011;27666;51.498;11.966;2022-12-05T14:24:27;23.67;;;14.93;;
17955;SDS011;27666;51.498;11.966;2022-12-05T14:27:18;25.50;;;14.27;;
17955;SDS011;27666;51.498;11.966;2022-12-05T14:30:18;24.47;;;15.10;;
17955;SDS011;27666;51.498;11.966;2022-12-05T14:33:10;26.23;;;15.53;;
17955;SDS011;27666;51.498;11.966;2022-12-05T14:36:03;22.17;;;14.30;;
17955;SDS011;27666;51.498;11.966;2022-12-05T14:38:52;26.50;;;14.67;;
17955;SDS011;27666;51.498;11.966;2022-12-05T14:41:38;26.73;;;15.40;;
17955;SDS011;27666;51.498;11.966;2022-12-05T14:44:25;26.33;;;14.70;;
17955;SDS011;27666;51.498;11.966;2022-12-05T14:47:18;29.77;;;16.60;;
17955;SDS011;27666;51.498;11.966;2022-12-05T14:50:21;61.23;;;31.47;;
17955;SDS011;27666;51.498;11.966;2022-12-05T14:53:24;25.57;;;16.17;;
17955;SDS011;27666;51.498;11.966;2022-12-05T14:56:17;23.47;;;14.30;;
17955;SDS011;27666;51.498;11.966;2022-12-05T14:59:10;22.63;;;14.93;;
17955;SDS011;27666;51.498;11.966;2022-12-05T15:02:10;26.10;;;15.17;;
17955;SDS011;27666;51.498;11.966;2022-12-05T15:05:05;27.23;;;14.37;;
17955;SDS011;27666;51.498;11.966;2022-12-05T15:08:03;27.23;;;14.93;;
17955;SDS011;27666;51.498;11.966;2022-12-05T15:10:50;25.17;;;15.20;;
17955;SDS011;27666;51.498;11.966;2022-12-05T15:13:37;26.10;;;15.07;;
17955;SDS011;27666;51.498;11.966;2022-12-05T15:16:25;25.40;;;15.50;;
17955;SDS011;27666;51.498;11.966;2022-12-05T15:19:14;24.07;;;15.90;;
17955;SDS011;27666;51.498;11.966;2022-12-05T15:22:05;31.13;;;19.50;;
17955;SDS011;27666;51.498;11.966;2022-12-05T15:24:52;36.20;;;22.13;;
17955;SDS011;27666;51.498;11.966;2022-12-05T15:27:38;46.23;;;24.43;;
17955;SDS011;27666;51.498;11.966;2022-12-05T15:30:25;59.20;;;30.53;;
17955;SDS011;27666;51.498;11.966;2022-12-05T15:33:13;94.87;;;43.30;;
17955;SDS011;27666;51.498;11.966;2022-12-05T15:35:59;74.03;;;37.23;;
17955;SDS011;27666;51.498;11.966;2022-12-05T15:38:47;60.53;;;33.30;;
17955;SDS011;27666;51.498;11.966;2022-12-05T15:41:34;53.33;;;30.50;;
17955;SDS011;27666;51.498;11.966;2022-12-05T15:44:26;49.73;;;30.80;;
17955;SDS011;27666;51.498;11.966;2022-12-05T15:47:21;61.53;;;35.47;;
17955;SDS011;27666;51.498;11.966;2022-12-05T15:50:11;56.93;;;29.27;;
17955;SDS011;27666;51.498;11.966;2022-12-05T15:52:58;45.67;;;26.83;;
17955;SDS011;27666;51.498;11.966;2022-12-05T15:55:51;46.30;;;26.80;;
17955;SDS011;27666;51.498;11.966;2022-12-05T15:58:41;58.07;;;29.50;;
17955;SDS011;27666;51.498;11.966;2022-12-05T16:01:31;51.27;;;25.33;;
17955;SDS011;27666;51.498;11.966;2022-12-05T16:04:25;122.17;;;57.80;;
17955;SDS011;27666;51.498;11.966;2022-12-05T16:07:15;58.00;;;29.20;;
17955;SDS011;27666;51.498;11.966;2022-12-05T16:10:02;48.07;;;25.03;;
17955;SDS011;27666;51.498;11.966;2022-12-05T16:12:51;48.93;;;26.97;;
17955;SDS011;27666;51.498;11.966;2022-12-05T16:15:40;51.93;;;27.50;;
17955;SDS011;27666;51.498;11.966;2022-12-05T16:18:36;57.70;;;28.90;;
17955;SDS011;27666;51.498;11.966;2022-12-05T16:21:26;52.67;;;28.23;;
17955;SDS011;27666;51.498;11.966;2022-12-05T16:24:25;60.00;;;31.70;;
17955;SDS011;27666;51.498;11.966;2022-12-05T16:27:14;91.43;;;47.40;;
17955;SDS011;27666;51.498;11.966;2022-12-05T16:30:06;91.00;;;48.30;;
17955;SDS011;27666;51.498;11.966;2022-12-05T16:33:04;74.63;;;42.93;;
17955;SDS011;27666;51.498;11.966;2022-12-05T16:35:52;96.17;;;52.47;;
17955;SDS011;27666;51.498;11.966;2022-12-05T16:38:39;128.83;;;61.60;;